createdAt,value
2019-02-17T00:01:45.596Z,1.70
2019-02-17T00:04:13.985Z,1.60
2019-02-17T00:06:42.410Z,1.50
2019-02-17T00:09:11.277Z,1.60
2019-02-17T00:11:39.709Z,1.60
2019-02-17T00:14:08.075Z,1.60
2019-02-17T00:16:36.551Z,1.60
2019-02-17T00:19:04.896Z,1.60
2019-02-17T00:21:33.297Z,1.50
2019-02-17T00:24:01.718Z,1.50
2019-02-17T00:26:30.635Z,1.50
2019-02-17T00:28:59.885Z,1.50
2019-02-17T00:31:28.356Z,1.40
2019-02-17T00:33:56.755Z,1.40
2019-02-17T00:36:25.143Z,1.40
2019-02-17T00:38:53.760Z,1.40
2019-02-17T00:41:22.162Z,1.30
2019-02-17T00:43:50.564Z,1.30
2019-02-17T00:46:18.966Z,1.40
2019-02-17T00:48:47.384Z,1.40
2019-02-17T00:51:15.771Z,1.50
2019-02-17T00:53:44.167Z,1.40
2019-02-17T00:56:12.553Z,1.30
2019-02-17T00:58:40.999Z,1.30
2019-02-17T01:01:09.411Z,1.30
2019-02-17T01:03:37.787Z,1.30
2019-02-17T01:06:06.301Z,1.30
2019-02-17T01:08:34.789Z,1.30
2019-02-17T01:11:03.200Z,1.20
2019-02-17T01:13:31.812Z,1.20
2019-02-17T01:16:00.248Z,1.20
2019-02-17T01:18:28.632Z,1.20
2019-02-17T01:20:57.047Z,1.10
2019-02-17T01:23:25.460Z,1.10
2019-02-17T01:25:53.936Z,1.10
2019-02-17T01:28:22.345Z,1.00
2019-02-17T01:30:50.767Z,1.00
2019-02-17T01:33:19.148Z,1.10
2019-02-17T01:35:47.532Z,1.10
2019-02-17T01:38:15.931Z,1.10
2019-02-17T01:40:44.308Z,1.10
2019-02-17T01:43:12.726Z,1.10
2019-02-17T01:45:41.119Z,1.10
2019-02-17T01:48:09.547Z,1.10
2019-02-17T01:50:37.927Z,1.10
2019-02-17T01:53:06.376Z,1.10
2019-02-17T01:55:34.752Z,1.10
2019-02-17T01:58:03.171Z,1.00
2019-02-17T02:00:31.563Z,1.00
2019-02-17T02:03:00.000Z,0.90
2019-02-17T02:05:28.377Z,0.90
2019-02-17T02:07:56.805Z,0.90
2019-02-17T02:10:25.259Z,0.80
2019-02-17T02:12:55.272Z,0.80
2019-02-17T02:15:23.655Z,0.90
2019-02-17T02:17:52.052Z,0.90
2019-02-17T02:20:20.471Z,0.90
2019-02-17T02:22:48.863Z,0.80
2019-02-17T02:25:17.251Z,0.80
2019-02-17T02:27:45.715Z,0.80
2019-02-17T02:30:14.300Z,0.80
2019-02-17T02:32:42.708Z,0.80
2019-02-17T02:35:11.109Z,0.80
2019-02-17T02:37:39.488Z,0.80
2019-02-17T02:40:08.392Z,0.70
2019-02-17T02:42:36.771Z,0.70
2019-02-17T02:45:08.016Z,0.80
2019-02-17T02:47:36.431Z,0.80
2019-02-17T02:50:07.850Z,0.80
2019-02-17T02:52:36.260Z,0.80
2019-02-17T02:55:04.932Z,0.80
2019-02-17T02:57:33.332Z,0.70
2019-02-17T03:00:01.766Z,0.70
2019-02-17T03:02:30.181Z,0.70
2019-02-17T03:04:58.580Z,0.70
2019-02-17T03:07:26.987Z,0.70
2019-02-17T03:09:55.391Z,0.70
2019-02-17T03:12:23.979Z,0.70
2019-02-17T03:14:52.366Z,0.70
2019-02-17T03:17:20.766Z,0.80
2019-02-17T03:19:49.194Z,0.80
2019-02-17T03:22:17.612Z,0.70
2019-02-17T03:24:45.997Z,0.60
2019-02-17T03:27:14.420Z,0.60
2019-02-17T03:29:42.804Z,0.50
2019-02-17T03:32:11.223Z,0.50
2019-02-17T03:34:39.608Z,0.50
2019-02-17T03:37:08.037Z,0.50
2019-02-17T03:39:36.426Z,0.50
2019-02-17T03:42:04.806Z,0.40
2019-02-17T03:44:33.227Z,0.50
2019-02-17T03:47:01.617Z,0.40
2019-02-17T03:49:30.008Z,0.40
2019-02-17T03:51:58.415Z,0.40
2019-02-17T03:54:26.816Z,0.50
2019-02-17T03:56:55.207Z,0.50
2019-02-17T03:59:23.623Z,0.40
2019-02-17T04:01:52.021Z,0.50
2019-02-17T04:04:20.431Z,0.50
2019-02-17T04:06:48.840Z,0.50
2019-02-17T04:09:17.231Z,0.40
2019-02-17T04:11:45.642Z,0.30
2019-02-17T04:14:14.029Z,0.30
2019-02-17T04:16:42.439Z,0.20
2019-02-17T04:19:10.878Z,0.30
2019-02-17T04:21:39.266Z,0.30
2019-02-17T04:24:07.690Z,0.30
2019-02-17T04:26:36.120Z,0.40
2019-02-17T04:29:04.522Z,0.30
2019-02-17T04:31:32.907Z,0.30
2019-02-17T04:34:01.321Z,0.30
2019-02-17T04:36:29.696Z,0.20
2019-02-17T04:38:58.108Z,0.30
2019-02-17T04:41:26.494Z,0.20
2019-02-17T04:43:54.906Z,0.20
2019-02-17T04:46:23.295Z,0.20
2019-02-17T04:48:51.691Z,0.20
2019-02-17T04:51:20.178Z,0.20
2019-02-17T04:53:48.595Z,0.10
2019-02-17T04:56:17.004Z,0.00
2019-02-17T04:58:45.395Z,0.00
2019-02-17T05:01:13.794Z,0.00
2019-02-17T05:03:42.190Z,0.10
2019-02-17T05:06:10.578Z,0.10
2019-02-17T05:08:38.998Z,0.10
2019-02-17T05:11:07.440Z,0.10
2019-02-17T05:13:35.892Z,0.10
2019-02-17T05:16:05.858Z,0.10
2019-02-17T05:18:34.227Z,0.10
2019-02-17T05:21:02.653Z,0.20
2019-02-17T05:23:31.034Z,0.10
2019-02-17T05:25:59.422Z,0.10
2019-02-17T05:28:27.829Z,0.10
2019-02-17T05:30:56.220Z,0.00
2019-02-17T05:33:24.651Z,0.10
2019-02-17T05:35:53.038Z,0.00
2019-02-17T05:38:21.437Z,0.10
2019-02-17T05:40:49.821Z,0.00
2019-02-17T05:43:18.226Z,-0.10
2019-02-17T05:45:46.672Z,-0.10
2019-02-17T05:48:15.061Z,-0.10
2019-02-17T05:50:43.545Z,-0.10
2019-02-17T05:53:11.968Z,-0.10
2019-02-17T05:55:40.357Z,-0.10
2019-02-17T05:58:08.776Z,-0.10
2019-02-17T06:00:37.549Z,0.00
2019-02-17T06:03:05.986Z,0.00
2019-02-17T06:05:34.371Z,0.00
2019-02-17T06:08:02.850Z,0.00
2019-02-17T06:10:31.211Z,0.00
2019-02-17T06:12:59.592Z,0.00
2019-02-17T06:15:28.004Z,0.00
2019-02-17T06:17:56.396Z,0.00
2019-02-17T06:20:24.843Z,0.00
2019-02-17T06:22:53.287Z,-0.10
2019-02-17T06:25:21.714Z,0.00
2019-02-17T06:27:50.133Z,0.00
2019-02-17T06:30:18.621Z,0.00
2019-02-17T06:32:47.053Z,0.00
2019-02-17T06:35:15.492Z,0.10
2019-02-17T06:37:43.885Z,0.10
2019-02-17T06:40:12.273Z,0.10
2019-02-17T06:42:40.700Z,0.10
2019-02-17T06:45:10.050Z,0.10
2019-02-17T06:47:38.449Z,0.20
2019-02-17T06:50:09.005Z,0.20
2019-02-17T06:52:37.423Z,0.20
2019-02-17T06:55:07.755Z,0.20
2019-02-17T06:57:37.777Z,0.30
2019-02-17T07:00:10.055Z,0.40
2019-02-17T07:02:38.535Z,0.50
2019-02-17T07:05:20.751Z,0.60
2019-02-17T07:07:49.158Z,0.60
2019-02-17T07:10:17.553Z,0.70
2019-02-17T07:12:45.955Z,0.80
2019-02-17T07:15:14.369Z,0.90
2019-02-17T07:17:42.742Z,1.00
2019-02-17T07:20:11.193Z,1.10
2019-02-17T07:22:39.569Z,1.20
2019-02-17T07:25:07.950Z,1.30
2019-02-17T07:27:36.386Z,1.40
2019-02-17T07:30:05.920Z,1.50
2019-02-17T07:32:34.299Z,1.50
2019-02-17T07:35:02.721Z,1.60
2019-02-17T07:37:33.819Z,1.80
2019-02-17T07:40:01.220Z,1.90
2019-02-17T07:42:29.738Z,2.00
2019-02-17T07:44:58.102Z,2.10
2019-02-17T07:47:26.484Z,2.20
2019-02-17T07:49:54.893Z,2.30
2019-02-17T07:52:23.266Z,2.40
2019-02-17T07:54:51.679Z,2.50
2019-02-17T07:57:20.070Z,2.60
2019-02-17T07:59:48.456Z,2.80
2019-02-17T08:02:16.850Z,3.00
2019-02-17T08:04:45.271Z,3.20
2019-02-17T08:07:13.657Z,3.40
2019-02-17T08:09:42.038Z,3.50
2019-02-17T08:12:10.529Z,3.60
2019-02-17T08:14:38.925Z,3.80
2019-02-17T08:17:07.323Z,4.10
2019-02-17T08:19:35.710Z,4.20
2019-02-17T08:22:04.133Z,4.40
2019-02-17T08:24:32.510Z,4.60
2019-02-17T08:27:00.883Z,4.90
2019-02-17T08:29:29.269Z,5.20
2019-02-17T08:31:57.672Z,5.40
2019-02-17T08:34:26.049Z,5.60
2019-02-17T08:36:54.499Z,5.80
2019-02-17T08:39:22.875Z,5.90
2019-02-17T08:41:51.262Z,6.00
2019-02-17T08:44:19.663Z,6.30
2019-02-17T08:46:48.048Z,6.60
2019-02-17T08:49:16.453Z,6.80
2019-02-17T08:51:44.880Z,6.90
2019-02-17T08:54:13.254Z,7.10
2019-02-17T08:56:41.633Z,7.20
2019-02-17T08:59:10.064Z,7.30
2019-02-17T09:01:40.442Z,7.40
2019-02-17T09:04:08.485Z,7.50
2019-02-17T09:06:36.889Z,7.70
2019-02-17T09:09:05.909Z,7.90
2019-02-17T09:11:34.304Z,7.90
2019-02-17T09:14:02.729Z,7.90
2019-02-17T09:16:31.112Z,8.00
2019-02-17T09:18:59.538Z,8.00
2019-02-17T09:21:27.958Z,8.10
2019-02-17T09:23:56.349Z,8.20
2019-02-17T09:26:24.874Z,8.30
2019-02-17T09:28:53.259Z,8.40
2019-02-17T09:31:21.635Z,8.50
2019-02-17T09:33:50.047Z,8.60
2019-02-17T09:36:18.439Z,8.60
2019-02-17T09:38:46.980Z,8.70
2019-02-17T09:41:15.408Z,8.70
2019-02-17T09:43:45.577Z,8.90
2019-02-17T09:46:14.167Z,9.00
2019-02-17T09:48:42.582Z,9.00
2019-02-17T09:51:10.995Z,9.10
2019-02-17T09:53:39.358Z,9.20
2019-02-17T09:56:07.771Z,9.20
2019-02-17T09:58:36.150Z,9.20
2019-02-17T10:01:04.718Z,9.30
2019-02-17T10:03:33.109Z,9.40
2019-02-17T10:06:01.487Z,9.40
2019-02-17T10:08:29.883Z,9.40
2019-02-17T10:10:59.167Z,9.60
2019-02-17T10:13:27.571Z,9.60
2019-02-17T10:15:55.972Z,9.70
2019-02-17T10:18:24.392Z,9.70
2019-02-17T10:20:52.764Z,9.80
2019-02-17T10:23:21.138Z,9.90
2019-02-17T10:25:49.462Z,9.90
2019-02-17T10:28:17.862Z,10.00
2019-02-17T10:30:46.274Z,10.10
2019-02-17T10:33:14.650Z,10.10
2019-02-17T10:35:43.032Z,10.10
2019-02-17T10:38:11.427Z,10.20
2019-02-17T10:40:39.860Z,10.30
2019-02-17T10:43:08.265Z,10.40
2019-02-17T10:45:36.641Z,10.40
2019-02-17T10:48:05.069Z,10.40
2019-02-17T10:50:33.462Z,10.40
2019-02-17T10:53:01.898Z,10.50
2019-02-17T10:55:30.331Z,10.50
2019-02-17T10:57:58.711Z,10.50
2019-02-17T11:00:27.706Z,10.70
2019-02-17T11:02:57.750Z,10.80
2019-02-17T11:05:26.124Z,10.80
2019-02-17T11:07:54.515Z,10.90
2019-02-17T11:10:23.013Z,10.90
2019-02-17T11:12:51.470Z,11.00
2019-02-17T11:15:20.435Z,11.20
2019-02-17T11:17:48.879Z,11.30
2019-02-17T11:20:20.391Z,11.20
2019-02-17T11:22:48.772Z,11.40
2019-02-17T11:25:17.207Z,11.40
2019-02-17T11:27:45.700Z,11.40
2019-02-17T11:30:19.347Z,11.40
2019-02-17T11:32:57.167Z,11.60
2019-02-17T11:35:17.772Z,11.60
2019-02-17T11:37:46.213Z,11.70
2019-02-17T11:40:14.628Z,11.70
2019-02-17T11:42:43.030Z,11.80
2019-02-17T11:45:17.401Z,11.90
2019-02-17T11:47:45.834Z,12.00
2019-02-17T11:50:15.766Z,12.00
2019-02-17T11:52:44.425Z,12.10
2019-02-17T11:55:14.654Z,12.10
2019-02-17T11:57:43.065Z,12.20
2019-02-17T12:00:14.713Z,12.40
2019-02-17T12:02:43.134Z,12.40
2019-02-17T12:05:11.641Z,12.50
2019-02-17T12:07:40.076Z,12.50
2019-02-17T12:10:10.461Z,12.50
2019-02-17T12:12:38.828Z,12.60
2019-02-17T12:15:09.489Z,12.70
2019-02-17T12:17:37.872Z,12.70
2019-02-17T12:20:27.679Z,12.80
2019-02-17T12:22:57.737Z,13.00
2019-02-17T12:25:27.764Z,13.00
2019-02-17T12:27:57.824Z,12.90
2019-02-17T12:30:26.431Z,12.80
2019-02-17T12:32:54.829Z,12.90
2019-02-17T12:35:23.224Z,13.10
2019-02-17T12:37:51.639Z,13.20
2019-02-17T12:40:20.048Z,13.30
2019-02-17T12:42:48.425Z,13.30
2019-02-17T12:45:18.378Z,13.30
2019-02-17T12:47:55.399Z,13.30
2019-02-17T12:50:19.727Z,13.30
2019-02-17T12:52:49.129Z,13.20
2019-02-17T12:55:17.582Z,13.20
2019-02-17T12:57:46.082Z,13.30
2019-02-17T13:00:16.543Z,13.30
2019-02-17T13:02:44.943Z,13.30
2019-02-17T13:05:13.349Z,13.40
2019-02-17T13:07:42.931Z,13.50
2019-02-17T13:10:11.848Z,13.50
2019-02-17T13:12:40.275Z,13.50
2019-02-17T13:15:11.204Z,13.60
2019-02-17T13:17:39.620Z,13.70
2019-02-17T13:20:10.667Z,13.70
2019-02-17T13:22:39.087Z,13.70
2019-02-17T13:25:13.566Z,13.70
2019-02-17T13:27:41.999Z,13.80
2019-02-17T13:30:21.965Z,13.70
2019-02-17T13:32:50.394Z,13.70
2019-02-17T13:35:18.796Z,13.70
2019-02-17T13:37:47.203Z,13.80
2019-02-17T13:40:15.585Z,13.80
2019-02-17T13:42:43.993Z,13.90
2019-02-17T13:45:16.664Z,13.80
2019-02-17T13:47:45.044Z,13.80
2019-02-17T13:50:15.655Z,13.80
2019-02-17T13:52:44.203Z,13.80
2019-02-17T13:55:12.738Z,13.80
2019-02-17T13:57:41.122Z,13.90
2019-02-17T14:00:15.071Z,13.90
2019-02-17T14:02:43.475Z,14.00
2019-02-17T14:05:11.886Z,14.00
2019-02-17T14:07:42.281Z,14.00
2019-02-17T14:10:14.680Z,14.00
2019-02-17T14:12:43.076Z,14.00
2019-02-17T14:15:18.887Z,14.10
2019-02-17T14:17:47.293Z,14.00
2019-02-17T14:20:15.720Z,14.00
2019-02-17T14:22:44.126Z,14.00
2019-02-17T14:25:12.567Z,14.00
2019-02-17T14:27:40.955Z,14.10
2019-02-17T14:30:14.212Z,14.20
2019-02-17T14:32:42.575Z,14.20
2019-02-17T14:35:10.961Z,14.20
2019-02-17T14:37:39.358Z,14.20
2019-02-17T14:40:12.628Z,14.20
2019-02-17T14:42:41.032Z,14.20
2019-02-17T14:45:11.776Z,14.20
2019-02-17T14:47:40.167Z,14.10
2019-02-17T14:50:08.877Z,14.20
2019-02-17T14:52:37.329Z,14.20
2019-02-17T14:55:07.848Z,14.20
2019-02-17T14:57:36.261Z,14.20
2019-02-17T15:00:13.091Z,14.10
2019-02-17T15:02:41.483Z,14.00
2019-02-17T15:05:10.444Z,13.90
2019-02-17T15:07:38.841Z,13.80
2019-02-17T15:10:10.137Z,13.60
2019-02-17T15:12:38.546Z,13.50
2019-02-17T15:15:11.504Z,13.30
2019-02-17T15:17:39.901Z,13.20
2019-02-17T15:20:17.468Z,13.00
2019-02-17T15:22:45.848Z,12.80
2019-02-17T15:25:14.232Z,12.70
2019-02-17T15:27:42.663Z,12.50
2019-02-17T15:30:14.777Z,12.50
2019-02-17T15:32:43.207Z,12.30
2019-02-17T15:35:11.595Z,12.20
2019-02-17T15:37:39.972Z,12.10
2019-02-17T15:40:14.347Z,12.00
2019-02-17T15:42:44.581Z,11.90
2019-02-17T15:45:13.845Z,11.70
2019-02-17T15:47:42.223Z,11.60
2019-02-17T15:50:12.004Z,11.40
2019-02-17T15:52:40.390Z,11.30
2019-02-17T15:55:10.738Z,11.10
2019-02-17T15:57:39.152Z,10.90
2019-02-17T16:00:15.964Z,10.80
2019-02-17T16:02:44.386Z,10.60
2019-02-17T16:05:12.855Z,10.50
2019-02-17T16:07:41.242Z,10.30
2019-02-17T16:10:11.420Z,10.20
2019-02-17T16:12:39.826Z,10.00
2019-02-17T16:15:11.506Z,9.80
2019-02-17T16:17:39.934Z,9.70
2019-02-17T16:20:11.071Z,9.50
2019-02-17T16:22:39.455Z,9.40
2019-02-17T16:25:09.094Z,9.20
2019-02-17T16:27:37.648Z,9.10
2019-02-17T16:30:14.482Z,9.00
2019-02-17T16:32:42.897Z,8.90
2019-02-17T16:35:11.283Z,8.80
2019-02-17T16:37:39.791Z,8.70
2019-02-17T16:40:14.249Z,8.60
2019-02-17T16:42:42.660Z,8.40
2019-02-17T16:45:12.504Z,8.40
2019-02-17T16:47:40.899Z,8.20
2019-02-17T16:50:12.405Z,8.10
2019-02-17T16:52:40.814Z,8.10
2019-02-17T16:55:10.548Z,8.00
2019-02-17T16:57:39.032Z,7.90
2019-02-17T17:00:15.294Z,7.80
2019-02-17T17:02:43.706Z,7.70
2019-02-17T17:05:12.122Z,7.70
2019-02-17T17:07:40.501Z,7.60
2019-02-17T17:10:08.922Z,7.60
2019-02-17T17:12:37.308Z,7.50
2019-02-17T17:15:08.336Z,7.50
2019-02-17T17:17:36.802Z,7.40
2019-02-17T17:20:08.437Z,7.30
2019-02-17T17:22:36.840Z,7.30
2019-02-17T17:25:07.776Z,7.10
2019-02-17T17:27:36.204Z,7.00
2019-02-17T17:30:07.398Z,7.00
2019-02-17T17:32:35.778Z,6.90
2019-02-17T17:35:04.946Z,6.80
2019-02-17T17:37:33.329Z,6.80
2019-02-17T17:40:01.775Z,6.60
2019-02-17T17:42:30.163Z,6.60
2019-02-17T17:44:58.559Z,6.60
2019-02-17T17:47:27.017Z,6.50
2019-02-17T17:49:55.387Z,6.50
2019-02-17T17:52:23.772Z,6.40
2019-02-17T17:54:52.196Z,6.40
2019-02-17T17:57:20.612Z,6.40
2019-02-17T17:59:48.987Z,6.30
2019-02-17T18:02:17.595Z,6.20
2019-02-17T18:04:45.971Z,6.20
2019-02-17T18:07:14.378Z,6.10
2019-02-17T18:09:42.752Z,6.10
2019-02-17T18:12:11.203Z,6.00
2019-02-17T18:14:39.580Z,5.90
2019-02-17T18:17:08.021Z,5.90
2019-02-17T18:19:36.408Z,5.90
2019-02-17T18:22:04.796Z,5.90
2019-02-17T18:24:33.203Z,5.90
2019-02-17T18:27:01.588Z,5.90
2019-02-17T18:29:30.157Z,5.90
2019-02-17T18:31:58.568Z,5.80
2019-02-17T18:34:27.017Z,5.80
2019-02-17T18:36:55.399Z,5.70
2019-02-17T18:39:23.800Z,5.70
2019-02-17T18:41:52.213Z,5.60
2019-02-17T18:44:20.591Z,5.60
2019-02-17T18:46:49.103Z,5.70
2019-02-17T18:49:17.519Z,5.60
2019-02-17T18:51:46.032Z,5.50
2019-02-17T18:54:14.407Z,5.50
2019-02-17T18:56:44.515Z,5.50
2019-02-17T18:59:12.905Z,5.40
2019-02-17T19:01:41.328Z,5.40
2019-02-17T19:04:09.698Z,5.40
2019-02-17T19:06:38.113Z,5.30
2019-02-17T19:09:07.035Z,5.30
2019-02-17T19:11:35.466Z,5.20
2019-02-17T19:14:03.863Z,5.20
2019-02-17T19:16:33.905Z,5.20
2019-02-17T19:19:02.338Z,5.10
2019-02-17T19:21:31.739Z,5.10
2019-02-17T19:24:00.116Z,5.00
2019-02-17T19:26:28.516Z,5.00
2019-02-17T19:28:56.923Z,5.00
2019-02-17T19:31:25.352Z,4.90
2019-02-17T19:33:53.757Z,4.90
2019-02-17T19:36:22.140Z,4.90
2019-02-17T19:38:50.536Z,4.80
2019-02-17T19:41:18.969Z,4.80
2019-02-17T19:43:47.375Z,4.70
2019-02-17T19:46:15.788Z,4.80
2019-02-17T19:48:44.413Z,4.70
2019-02-17T19:51:12.943Z,4.70
2019-02-17T19:53:41.290Z,4.60
2019-02-17T19:56:09.777Z,4.50
2019-02-17T19:58:38.265Z,4.40
2019-02-17T20:01:06.659Z,4.40
2019-02-17T20:03:36.844Z,4.40
2019-02-17T20:06:06.903Z,4.40
2019-02-17T20:08:35.331Z,4.30
2019-02-17T20:11:03.960Z,4.30
2019-02-17T20:13:32.338Z,4.20
2019-02-17T20:16:00.738Z,4.20
2019-02-17T20:18:29.170Z,4.20
2019-02-17T20:20:57.581Z,4.10
2019-02-17T20:23:26.016Z,4.10
2019-02-17T20:25:57.859Z,4.20
2019-02-17T20:28:40.693Z,4.10
2019-02-17T20:30:56.002Z,4.10
2019-02-17T20:33:24.423Z,4.00
2019-02-17T20:36:01.758Z,3.90
2019-02-17T20:38:23.127Z,3.90
2019-02-17T20:40:51.513Z,3.90
2019-02-17T20:43:19.937Z,3.90
2019-02-17T20:45:48.578Z,3.90
2019-02-17T20:48:17.164Z,3.80
2019-02-17T20:50:45.749Z,3.80
2019-02-17T20:53:14.384Z,3.80
2019-02-17T20:55:42.692Z,3.80
2019-02-17T20:58:11.467Z,3.80
2019-02-17T21:00:39.820Z,3.70
2019-02-17T21:03:08.277Z,3.70
2019-02-17T21:05:36.683Z,3.70
2019-02-17T21:08:05.095Z,3.60
2019-02-17T21:10:33.922Z,3.50
2019-02-17T21:13:02.313Z,3.50
2019-02-17T21:15:30.725Z,3.50
2019-02-17T21:17:59.119Z,3.50
2019-02-17T21:20:27.554Z,3.40
2019-02-17T21:22:55.981Z,3.40
2019-02-17T21:25:24.820Z,3.30
2019-02-17T21:27:53.197Z,3.30
2019-02-17T21:30:21.589Z,3.20
2019-02-17T21:32:50.032Z,3.20
2019-02-17T21:35:18.422Z,3.10
2019-02-17T21:37:46.800Z,3.10
2019-02-17T21:40:16.887Z,3.10
2019-02-17T21:42:45.299Z,3.10
2019-02-17T21:45:14.970Z,3.00
2019-02-17T21:47:43.341Z,3.10
2019-02-17T21:50:15.518Z,3.00
2019-02-17T21:52:43.981Z,3.00
2019-02-17T21:55:13.328Z,3.00
2019-02-17T21:57:41.703Z,3.00
2019-02-17T22:00:16.906Z,2.90
2019-02-17T22:02:45.499Z,2.90
2019-02-17T22:05:13.912Z,2.90
2019-02-17T22:07:42.356Z,2.80
2019-02-17T22:10:13.419Z,2.80
2019-02-17T22:12:41.871Z,2.80
2019-02-17T22:15:12.970Z,2.70
2019-02-17T22:17:41.360Z,2.70
2019-02-17T22:20:11.068Z,2.70
2019-02-17T22:22:39.457Z,2.70
2019-02-17T22:25:11.728Z,2.70
2019-02-17T22:27:40.144Z,2.60
2019-02-17T22:30:13.679Z,2.60
2019-02-17T22:32:42.090Z,2.60
2019-02-17T22:35:10.481Z,2.60
2019-02-17T22:37:38.908Z,2.60
2019-02-17T22:40:11.739Z,2.60
2019-02-17T22:42:42.488Z,2.60
2019-02-17T22:45:14.502Z,2.60
2019-02-17T22:47:42.889Z,2.60
2019-02-17T22:50:13.411Z,2.60
2019-02-17T22:52:41.889Z,2.50
2019-02-17T22:55:11.639Z,2.50
2019-02-17T22:57:40.076Z,2.50
2019-02-17T23:00:24.933Z,2.50
2019-02-17T23:02:53.324Z,2.50
2019-02-17T23:05:21.709Z,2.50
2019-02-17T23:07:50.115Z,2.50
2019-02-17T23:10:18.571Z,2.50
2019-02-17T23:12:46.978Z,2.50
2019-02-17T23:15:15.386Z,2.50
2019-02-17T23:17:43.806Z,2.50
2019-02-17T23:20:12.220Z,2.50
2019-02-17T23:22:40.650Z,2.40
2019-02-17T23:25:09.411Z,2.30
2019-02-17T23:27:37.861Z,2.20
2019-02-17T23:30:08.258Z,2.20
2019-02-17T23:32:38.293Z,2.20
2019-02-17T23:35:06.685Z,2.10
2019-02-17T23:37:35.099Z,2.10
2019-02-17T23:40:05.080Z,2.10
2019-02-17T23:42:33.455Z,2.20
2019-02-17T23:45:01.985Z,2.20
2019-02-17T23:47:30.350Z,2.20
2019-02-17T23:49:58.721Z,2.10
2019-02-17T23:52:27.328Z,2.00
2019-02-17T23:54:55.706Z,2.00
2019-02-17T23:57:24.370Z,1.90
2019-02-17T23:59:52.782Z,1.80
